Time;durP1;ratioP1;P1;durP2;ratioP2;P2;SDS_P1;SDS_P2;PMS_P1;PMS_P2;Temp;Humidity;BMP_temperature;BMP_pressure;BME280_temperature;BME280_humidity;BME280_pressure;Samples;Min_cycle;Max_cycle;Signal;HPM_P1;HPM_P2
2022/12/07 00:01:27;;;;;;;13.95;9.77;;;;;;;6.42;73.80;101753.72;5029248;28;20029;-60
2022/12/07 00:03:56;;;;;;;14.32;10.60;;;;;;;6.41;73.48;101745.66;5030012;28;20060;-61
2022/12/07 00:06:22;;;;;;;16.00;9.95;;;;;;;6.39;73.28;101748.59;5030245;28;20030;-61
2022/12/07 00:08:48;;;;;;;12.43;9.52;;;;;;;6.34;73.42;101745.63;5029295;28;20037;-61
2022/12/07 00:11:20;;;;;;;13.02;9.02;;;;;;;6.35;73.31;101744.56;5019441;28;20038;-61
2022/12/07 00:13:47;;;;;;;11.90;9.15;;;;;;;6.31;72.94;101752.38;5030211;28;20485;-61
2022/12/07 00:16:15;;;;;;;12.00;9.32;;;;;;;6.30;73.83;101745.16;5029348;28;20026;-61
2022/12/07 00:18:41;;;;;;;12.70;9.75;;;;;;;6.29;73.26;101743.47;5030502;28;20078;-61
2022/12/07 00:21:14;;;;;;;13.20;9.45;;;;;;;6.25;73.13;101741.28;5030012;28;20072;-60
2022/12/07 00:23:41;;;;;;;12.43;8.73;;;;;;;6.24;73.27;101729.41;5029217;28;20033;-61
2022/12/07 00:26:09;;;;;;;11.40;8.23;;;;;;;6.22;72.65;101739.81;5030156;28;20026;-61
2022/12/07 00:28:34;;;;;;;13.50;9.15;;;;;;;6.22;72.92;101733.47;5026530;28;20033;-61
2022/12/07 00:31:02;;;;;;;11.80;8.90;;;;;;;6.22;72.90;101727.94;5020300;28;20034;-61
2022/12/07 00:33:28;;;;;;;14.63;9.15;;;;;;;6.20;73.18;101728.13;5010270;28;20163;-61
2022/12/07 00:35:58;;;;;;;10.38;8.70;;;;;;;6.19;73.26;101725.59;5015479;28;20080;-61
2022/12/07 00:38:23;;;;;;;11.77;8.73;;;;;;;6.17;73.42;101723.03;5029141;28;20021;-61
2022/12/07 00:41:10;;;;;;;11.27;8.82;;;;;;;6.20;73.59;101724.53;5029720;28;20469;-61
2022/12/07 00:43:36;;;;;;;11.93;8.90;;;;;;;6.16;73.03;101724.06;5030873;28;20033;-61
2022/12/07 00:46:01;;;;;;;10.95;8.45;;;;;;;6.17;73.52;101727.69;5033709;28;20079;-61
2022/12/07 00:48:27;;;;;;;12.20;8.73;;;;;;;6.18;73.09;101727.50;5027466;28;20084;-60
2022/12/07 00:50:52;;;;;;;12.82;9.38;;;;;;;6.17;73.79;101728.56;5032993;28;20503;-60
2022/12/07 00:53:18;;;;;;;14.35;9.40;;;;;;;6.18;73.01;101726.66;5025257;28;20021;-60
2022/12/07 00:55:44;;;;;;;11.20;8.55;;;;;;;6.11;73.60;101726.59;5033178;28;20025;-60
2022/12/07 00:58:10;;;;;;;9.82;8.35;;;;;;;6.11;73.03;101730.19;5033253;28;20029;-60
2022/12/07 01:00:38;;;;;;;12.50;8.43;;;;;;;6.09;72.74;101721.31;5033258;28;20025;-60
2022/12/07 01:03:04;;;;;;;9.50;8.13;;;;;;;6.07;72.59;101717.88;5033357;28;20033;-60
2022/12/07 01:05:30;;;;;;;10.80;8.50;;;;;;;6.08;72.46;101724.25;5027349;28;20040;-60
2022/12/07 01:07:55;;;;;;;10.70;8.00;;;;;;;6.05;72.61;101724.63;5033740;28;20021;-60
2022/12/07 01:10:20;;;;;;;10.63;8.23;;;;;;;6.02;72.96;101717.66;5033360;28;20091;-60
2022/12/07 01:12:46;;;;;;;12.20;7.70;;;;;;;6.01;72.19;101721.47;5033135;28;20496;-60
2022/12/07 01:15:11;;;;;;;9.18;7.10;;;;;;;6.03;72.86;101726.75;5033040;28;20056;-60
2022/12/07 01:17:36;;;;;;;10.68;7.57;;;;;;;5.98;72.70;101724.63;5033487;28;20060;-60
2022/12/07 01:20:03;;;;;;;10.05;7.65;;;;;;;5.99;72.57;101717.19;5031959;28;20373;-60
2022/12/07 01:22:28;;;;;;;10.65;6.88;;;;;;;5.97;72.90;101717.38;5023366;28;20045;-60
2022/12/07 01:24:53;;;;;;;10.60;7.80;;;;;;;5.97;72.71;101719.28;5028911;28;20168;-60
2022/12/07 01:27:18;;;;;;;9.70;7.43;;;;;;;5.95;72.57;101730.53;5028827;28;20377;-60
2022/12/07 01:29:44;;;;;;;8.20;7.32;;;;;;;5.95;72.63;101722.25;5031187;28;20037;-60
2022/12/07 01:32:10;;;;;;;9.05;7.40;;;;;;;5.94;73.06;101720.56;5033124;28;20029;-60
2022/12/07 01:34:35;;;;;;;9.23;7.05;;;;;;;5.95;73.22;101725.00;5031931;28;20033;-60
2022/12/07 01:37:00;;;;;;;10.10;6.95;;;;;;;5.97;73.29;101722.03;5032402;28;20111;-60
2022/12/07 01:39:26;;;;;;;10.00;7.63;;;;;;;5.97;73.09;101728.41;5032534;28;20033;-60
2022/12/07 01:41:52;;;;;;;7.47;6.57;;;;;;;5.98;73.89;101730.13;5025132;28;20029;-61
2022/12/07 01:44:32;;;;;;;7.78;6.85;;;;;;;5.99;73.93;101734.56;5032928;28;20534;-60
2022/12/07 01:47:03;;;;;;;8.20;7.00;;;;;;;6.00;73.60;101736.28;5030631;28;20025;-60
2022/12/07 01:49:47;;;;;;;8.88;6.93;;;;;;;5.96;73.18;101734.97;5030503;28;20057;-60
2022/12/07 01:52:33;;;;;;;9.02;7.10;;;;;;;6.03;73.49;101724.84;5023778;28;20083;-60
2022/12/07 01:55:05;;;;;;;9.00;7.32;;;;;;;5.99;73.75;101729.06;5028228;28;20041;-60
2022/12/07 01:57:33;;;;;;;;;;;;;;;6.15;72.93;101725.13;5031945;28;20205;-61
2022/12/07 01:59:59;;;;;;;8.38;7.00;;;;;;;6.01;73.46;101726.97;5012884;28;19964;-60
2022/12/07 02:02:31;;;;;;;10.55;7.30;;;;;;;5.96;73.54;101723.94;5012109;28;20044;-60
2022/12/07 02:04:58;;;;;;;12.73;7.93;;;;;;;5.96;72.98;101718.44;5012103;28;20026;-60
2022/12/07 02:07:24;;;;;;;8.52;7.07;;;;;;;5.93;73.28;101713.31;5026245;28;20025;-61
2022/12/07 02:09:50;;;;;;;7.78;6.97;;;;;;;5.91;73.49;101713.50;5030695;28;20071;-61
2022/12/07 02:12:15;;;;;;;13.95;7.50;;;;;;;5.90;72.93;101716.47;5031356;28;20034;-61
2022/12/07 02:14:41;;;;;;;8.82;6.70;;;;;;;5.91;73.07;101716.25;5024116;28;20568;-62
2022/12/07 02:17:26;;;;;;;9.63;6.93;;;;;;;5.92;73.30;101714.38;5032239;28;20021;-60
2022/12/07 02:20:01;;;;;;;7.72;6.80;;;;;;;5.92;73.16;101714.38;5031098;28;20094;-60
2022/12/07 02:22:44;;;;;;;8.40;6.82;;;;;;;5.94;73.48;101717.81;5030676;28;20037;-60
2022/12/07 02:25:31;;;;;;;9.80;7.03;;;;;;;5.87;73.32;101709.44;5032037;28;20611;-61
2022/12/07 02:28:06;;;;;;;8.20;6.82;;;;;;;5.87;72.76;101717.72;5031133;28;20037;-60
2022/12/07 02:30:38;;;;;;;8.02;6.55;;;;;;;5.85;73.37;101713.44;5031217;28;20087;-60
2022/12/07 02:33:17;;;;;;;9.18;6.72;;;;;;;5.87;73.04;101717.72;5025147;28;20040;-60
2022/12/07 02:35:50;;;;;;;7.45;6.35;;;;;;;5.80;72.81;101711.28;5031688;28;20048;-60
2022/12/07 02:38:19;;;;;;;8.93;6.82;;;;;;;5.82;72.82;101708.38;5031815;28;20038;-61
2022/12/07 02:41:00;;;;;;;10.05;6.90;;;;;;;5.83;73.06;101716.41;5031566;28;20022;-61
2022/12/07 02:43:28;;;;;;;7.88;6.50;;;;;;;5.82;73.08;101713.88;5031161;28;20039;-61
2022/12/07 02:46:09;;;;;;;7.88;6.50;;;;;;;5.79;72.75;101700.50;5031524;28;20036;-61
2022/12/07 02:48:37;;;;;;;10.07;6.60;;;;;;;5.78;72.84;101709.81;5029470;28;20052;-61
2022/12/07 02:51:02;;;;;;;7.82;6.72;;;;;;;5.75;73.13;101713.81;5011741;28;20223;-61
2022/12/07 02:53:39;;;;;;;8.05;6.32;;;;;;;5.78;72.72;101704.31;5024732;28;20105;-61
2022/12/07 02:56:10;;;;;;;7.82;6.85;;;;;;;5.78;73.29;101707.06;5031601;28;20044;-60
2022/12/07 02:58:47;;;;;;;11.15;6.43;;;;;;;5.80;73.65;101708.53;5033320;28;20025;-61
2022/12/07 03:01:21;;;;;;;9.70;6.47;;;;;;;5.77;73.48;101714.44;5015165;28;20037;-61
2022/12/07 03:03:53;;;;;;;8.18;6.28;;;;;;;5.77;73.07;101713.59;5030693;28;20068;-61
2022/12/07 03:06:33;;;;;;;10.17;6.30;;;;;;;5.78;73.81;101712.56;5023048;28;20378;-60
2022/12/07 03:09:15;;;;;;;8.55;6.45;;;;;;;5.75;73.20;101704.69;5031721;28;20276;-60
2022/12/07 03:11:47;;;;;;;8.93;6.47;;;;;;;5.73;72.98;101718.66;5030521;28;20025;-60
2022/12/07 03:14:18;;;;;;;7.68;5.88;;;;;;;5.73;73.08;101720.56;5031735;28;20337;-60
2022/12/07 03:16:57;;;;;;;7.40;5.88;;;;;;;5.74;73.12;101714.88;5031281;28;20091;-60
2022/12/07 03:19:26;;;;;;;8.48;5.80;;;;;;;5.70;73.27;101712.69;5030271;28;20037;-60
2022/12/07 03:21:57;;;;;;;7.20;5.80;;;;;;;5.67;72.86;101713.97;5030961;28;20196;-60
2022/12/07 03:24:28;;;;;;;10.18;6.18;;;;;;;5.69;73.38;101708.25;5022290;28;20041;-61
2022/12/07 03:27:03;;;;;;;6.95;5.57;;;;;;;5.68;73.18;101701.03;5030677;28;20044;-61
2022/12/07 03:29:35;;;;;;;8.43;5.22;;;;;;;5.68;72.87;101698.28;5030457;28;20520;-61
2022/12/07 03:32:30;;;;;;;7.15;5.50;;;;;;;5.69;73.01;101698.06;5030928;28;20056;-62
2022/12/07 03:35:08;;;;;;;9.27;5.47;;;;;;;5.64;72.82;101706.94;5029621;28;20531;-61
2022/12/07 03:37:39;;;;;;;7.88;5.35;;;;;;;5.63;72.87;101710.75;5030363;28;20048;-61
2022/12/07 03:40:34;;;;;;;9.55;5.40;;;;;;;5.68;73.39;101707.41;5022624;28;20100;-61
2022/12/07 03:43:01;;;;;;;7.10;5.45;;;;;;;5.66;73.38;101707.59;5024950;28;20040;-61
2022/12/07 03:45:40;;;;;;;6.13;5.53;;;;;;;5.68;73.18;101703.78;5028459;28;20914;-61
2022/12/07 03:48:33;;;;;;;7.88;5.40;;;;;;;5.72;73.52;101702.34;5009982;28;20500;-61
2022/12/07 03:51:01;;;;;;;6.70;5.90;;;;;;;5.68;73.50;101701.03;5010523;28;20136;-61
2022/12/07 03:53:50;;;;;;;8.93;5.63;;;;;;;5.69;73.00;101713.75;5023137;28;20392;-61
2022/12/07 03:56:16;;;;;;;6.85;4.97;;;;;;;5.64;73.35;101704.19;5030203;28;20143;-61
2022/12/07 03:58:42;;;;;;;6.38;5.50;;;;;;;5.66;73.81;101717.78;5021777;28;20108;-60
2022/12/07 04:01:07;;;;;;;6.32;5.72;;;;;;;5.65;73.43;101713.28;5028571;28;20103;-60
2022/12/07 04:03:33;;;;;;;6.97;5.25;;;;;;;5.65;73.77;101705.03;5028897;28;20333;-60
2022/12/07 04:05:59;;;;;;;6.93;5.60;;;;;;;5.61;73.46;101701.81;5028709;28;20033;-60
2022/12/07 04:08:24;;;;;;;9.30;5.40;;;;;;;5.61;73.79;101696.31;5028151;28;20747;-61
2022/12/07 04:10:50;;;;;;;8.88;5.80;;;;;;;5.58;74.00;101701.38;5029372;28;20042;-61
2022/12/07 04:13:16;;;;;;;10.52;5.40;;;;;;;5.62;74.00;101699.94;5030278;28;20430;-60
2022/12/07 04:15:41;;;;;;;7.43;5.38;;;;;;;5.61;74.06;101703.72;5022686;28;20040;-60
2022/12/07 04:18:06;;;;;;;6.75;5.50;;;;;;;5.63;74.16;101694.22;5029422;28;20026;-60
2022/12/07 04:20:31;;;;;;;10.88;6.03;;;;;;;5.65;74.03;101696.78;5029218;28;20049;-60
2022/12/07 04:22:57;;;;;;;9.68;5.38;;;;;;;5.67;74.25;101705.69;5029075;28;20033;-60
2022/12/07 04:25:22;;;;;;;7.30;5.13;;;;;;;5.66;74.40;101693.00;5029705;28;20129;-61
2022/12/07 04:27:47;;;;;;;6.88;5.32;;;;;;;5.66;74.33;101702.09;5029555;28;20030;-60
2022/12/07 04:30:13;;;;;;;7.40;5.28;;;;;;;5.68;74.50;101703.78;5029285;28;20061;-60
2022/12/07 04:32:38;;;;;;;9.82;5.20;;;;;;;5.72;74.21;101694.06;5020387;28;20030;-60
2022/12/07 04:35:05;;;;;;;11.73;5.72;;;;;;;5.73;74.43;101691.09;5029763;28;20068;-60
2022/12/07 04:37:30;;;;;;;7.68;5.88;;;;;;;5.72;74.35;101685.81;5028333;28;20615;-60
2022/12/07 04:39:55;;;;;;;10.00;5.85;;;;;;;5.74;74.50;101686.44;5029695;28;20033;-60
2022/12/07 04:42:21;;;;;;;8.68;6.00;;;;;;;5.76;74.76;101679.69;5028842;28;20032;-61
2022/12/07 04:44:46;;;;;;;8.27;6.18;;;;;;;5.75;74.60;101688.16;5029074;28;20021;-60
2022/12/07 04:47:11;;;;;;;8.05;5.65;;;;;;;5.76;74.45;101687.13;5029125;28;20025;-60
2022/12/07 04:49:37;;;;;;;7.03;5.53;;;;;;;5.76;74.32;101690.72;5018645;28;20039;-60
2022/12/07 04:52:02;;;;;;;6.40;5.13;;;;;;;5.76;75.13;101692.63;5012014;28;20042;-60
2022/12/07 04:54:27;;;;;;;10.13;5.55;;;;;;;5.79;74.98;101693.06;5029613;28;20022;-60
2022/12/07 04:56:53;;;;;;;9.48;5.78;;;;;;;5.79;75.12;101692.22;5029540;28;20033;-60
2022/12/07 04:59:18;;;;;;;8.52;5.65;;;;;;;5.78;74.58;101691.38;5030044;28;20045;-60
2022/12/07 05:01:43;;;;;;;9.15;5.80;;;;;;;5.79;74.44;101683.97;5030035;28;20125;-60
2022/12/07 05:04:09;;;;;;;10.27;5.72;;;;;;;5.75;75.06;101671.66;5028826;28;20838;-60
2022/12/07 05:06:37;;;;;;;8.85;6.30;;;;;;;5.78;75.02;101679.50;5015111;28;20036;-60
2022/12/07 05:09:04;;;;;;;11.43;6.93;;;;;;;5.79;74.62;101679.31;5010490;28;20033;-60
2022/12/07 05:11:38;;;;;;;11.32;7.80;;;;;;;5.78;74.68;101674.84;5009109;28;20033;-61
2022/12/07 05:14:10;;;;;;;13.15;7.32;;;;;;;5.78;75.07;101677.59;5009907;28;20069;-60
2022/12/07 05:16:36;;;;;;;14.70;8.60;;;;;;;5.79;74.44;101667.44;5009850;28;20029;-60
2022/12/07 05:19:01;;;;;;;14.55;8.48;;;;;;;5.79;74.27;101673.78;5027054;28;20152;-60
2022/12/07 05:21:27;;;;;;;11.38;6.75;;;;;;;5.80;75.20;101681.00;5029053;28;20036;-60
2022/12/07 05:23:52;;;;;;;11.27;5.80;;;;;;;5.81;74.77;101674.41;5010559;28;20062;-61
2022/12/07 05:26:18;;;;;;;6.38;5.65;;;;;;;5.80;75.02;101672.72;5009099;28;20034;-60
2022/12/07 05:28:43;;;;;;;7.45;5.35;;;;;;;5.80;74.71;101671.88;5009701;28;20026;-60
2022/12/07 05:31:08;;;;;;;8.90;5.18;;;;;;;5.79;74.35;101673.78;5012337;28;20029;-60
2022/12/07 05:33:34;;;;;;;8.85;5.32;;;;;;;5.79;75.04;101673.78;5027591;28;20065;-60
2022/12/07 05:36:05;;;;;;;9.68;5.03;;;;;;;5.81;74.79;101677.19;5032801;28;20827;-60
2022/12/07 05:38:33;;;;;;;10.23;4.75;;;;;;;5.81;74.48;101679.09;5024896;28;20370;-61
2022/12/07 05:41:06;;;;;;;7.82;4.60;;;;;;;5.79;74.42;101682.06;5014425;28;20022;-61
2022/12/07 05:43:32;;;;;;;9.45;5.05;;;;;;;5.77;74.29;101672.28;5013318;28;20073;-61
2022/12/07 05:45:58;;;;;;;7.47;4.75;;;;;;;5.75;73.62;101663.38;5012155;28;20033;-61
2022/12/07 05:48:23;;;;;;;9.43;4.72;;;;;;;5.73;73.87;101665.47;5032569;28;20025;-60
2022/12/07 05:50:50;;;;;;;9.55;4.65;;;;;;;5.68;73.34;101662.47;5032635;28;20370;-61
2022/12/07 05:53:15;;;;;;;6.90;4.32;;;;;;;5.68;73.45;101662.47;5031455;28;20039;-61
2022/12/07 05:55:41;;;;;;;7.38;4.53;;;;;;;5.64;72.92;101662.03;5025473;28;20044;-61
2022/12/07 06:00:56;;;;;;;9.90;5.20;;;;;;;5.57;72.83;101659.22;5031224;28;20562;-61
2022/12/07 06:03:24;;;;;;;6.90;4.10;;;;;;;5.57;72.79;101666.63;5017739;28;20057;-61
2022/12/07 06:05:52;;;;;;;8.05;3.92;;;;;;;5.54;72.91;101670.66;5012906;28;20033;-61
2022/12/07 06:08:17;;;;;;;7.18;4.05;;;;;;;5.51;72.96;101664.69;5019264;28;20029;-61
2022/12/07 06:10:42;;;;;;;6.15;4.50;;;;;;;5.48;72.68;101663.19;5023902;28;20033;-61
2022/12/07 06:13:09;;;;;;;10.35;4.20;;;;;;;5.50;73.09;101668.47;5025646;28;20258;-61
2022/12/07 06:15:37;;;;;;;8.40;4.47;;;;;;;5.44;73.05;101656.38;5020372;28;20116;-61
2022/12/07 06:18:03;;;;;;;7.22;4.78;;;;;;;5.42;72.67;101672.22;5032646;28;20044;-61
2022/12/07 06:20:28;;;;;;;10.93;5.50;;;;;;;5.39;72.55;101676.25;5037008;28;20051;-62
2022/12/07 06:22:53;;;;;;;8.82;6.00;;;;;;;5.39;72.62;101669.88;5025229;28;20041;-61
2022/12/07 06:25:19;;;;;;;10.98;5.80;;;;;;;5.38;72.29;101681.94;5026219;28;20392;-61
2022/12/07 06:27:44;;;;;;;7.28;5.38;;;;;;;5.38;72.92;101669.03;5027217;28;20025;-61
2022/12/07 06:30:09;;;;;;;7.68;5.00;;;;;;;5.36;72.55;101673.03;5032575;28;20411;-59
2022/12/07 06:32:36;;;;;;;8.32;4.97;;;;;;;5.36;72.66;101671.13;5038702;28;20029;-61
2022/12/07 06:35:02;;;;;;;7.95;5.00;;;;;;;5.36;73.37;101676.63;5024853;28;20021;-61
2022/12/07 06:37:27;;;;;;;10.57;5.03;;;;;;;5.38;73.24;101682.81;5019648;28;22324;-60
2022/12/07 06:39:53;;;;;;;8.13;4.75;;;;;;;5.37;73.28;101677.47;5039912;28;20033;-60
2022/12/07 06:42:18;;;;;;;5.80;4.30;;;;;;;5.39;73.37;101686.41;5034345;28;20605;-60
2022/12/07 06:44:43;;;;;;;9.60;5.07;;;;;;;5.36;73.30;101681.28;5031254;28;20049;-61
2022/12/07 06:47:09;;;;;;;8.82;4.68;;;;;;;5.40;73.75;101682.59;5026472;28;20037;-60
2022/12/07 06:49:34;;;;;;;8.63;4.60;;;;;;;5.40;73.22;101685.34;5028191;28;20061;-61
2022/12/07 06:52:00;;;;;;;10.27;4.78;;;;;;;5.35;73.82;101679.59;5025170;28;20259;-61
2022/12/07 06:54:25;;;;;;;10.43;4.55;;;;;;;5.36;73.38;101664.78;5021512;28;20431;-61
2022/12/07 06:56:50;;;;;;;10.10;4.82;;;;;;;5.38;73.70;101673.66;5028483;28;20029;-61
2022/12/07 06:59:16;;;;;;;7.28;4.88;;;;;;;5.36;73.90;101671.13;5030241;28;20028;-61
2022/12/07 07:01:41;;;;;;;7.45;4.93;;;;;;;5.37;73.92;101672.81;5027963;28;20377;-61
2022/12/07 07:04:06;;;;;;;4.78;4.22;;;;;;;5.33;73.74;101665.16;5028482;28;20033;-61
2022/12/07 07:06:32;;;;;;;12.13;4.50;;;;;;;5.39;73.64;101670.75;5026245;28;20835;-61
2022/12/07 07:08:57;;;;;;;8.70;4.90;;;;;;;5.38;73.55;101668.16;5030497;28;20088;-61
2022/12/07 07:11:22;;;;;;;9.82;5.65;;;;;;;5.37;73.61;101681.09;5020891;28;20040;-62
2022/12/07 07:13:48;;;;;;;9.75;5.32;;;;;;;5.39;73.95;101686.41;5017606;28;20056;-60
2022/12/07 07:16:13;;;;;;;12.30;5.45;;;;;;;5.37;73.54;101677.47;5029141;28;20037;-59
2022/12/07 07:18:39;;;;;;;9.07;4.72;;;;;;;5.33;73.82;101687.19;5029036;28;20025;-59
2022/12/07 07:21:04;;;;;;;12.18;5.47;;;;;;;5.35;73.97;101683.19;5029559;28;20033;-61
2022/12/07 07:23:29;;;;;;;7.90;5.15;;;;;;;5.32;74.07;101691.84;5030008;28;20025;-61
2022/12/07 07:25:55;;;;;;;11.32;5.15;;;;;;;5.30;73.87;101693.09;5025922;28;20030;-61
2022/12/07 07:28:20;;;;;;;8.52;4.70;;;;;;;5.31;73.96;101687.41;5029312;28;20034;-59
2022/12/07 07:30:45;;;;;;;6.25;4.32;;;;;;;5.32;74.00;101691.00;5017073;28;20092;-61
2022/12/07 07:33:11;;;;;;;9.68;4.10;;;;;;;5.32;73.81;101688.25;5027395;28;20029;-62
2022/12/07 07:35:37;;;;;;;7.28;4.55;;;;;;;5.32;73.81;101691.84;5009381;28;20113;-63
2022/12/07 07:38:03;;;;;;;6.28;4.90;;;;;;;5.35;73.86;101685.94;5022715;28;20084;-61
2022/12/07 07:40:29;;;;;;;8.45;4.35;;;;;;;5.34;73.75;101688.88;5007864;28;20036;-61
2022/12/07 07:42:54;;;;;;;6.60;4.65;;;;;;;5.33;73.50;101693.53;5026062;28;20431;-61
2022/12/07 07:45:21;;;;;;;8.88;4.80;;;;;;;5.37;73.27;101694.00;5013094;28;20029;-59
2022/12/07 07:47:47;;;;;;;9.45;4.78;;;;;;;5.35;73.17;101690.63;5025137;28;20360;-60
2022/12/07 07:50:12;;;;;;;7.85;4.60;;;;;;;5.35;73.03;101696.97;5031600;28;20048;-60
2022/12/07 07:52:38;;;;;;;10.65;5.10;;;;;;;5.34;73.10;101691.63;5018503;28;20032;-60
2022/12/07 07:55:04;;;;;;;7.20;4.95;;;;;;;5.37;73.49;101691.25;5023722;28;20034;-61
2022/12/07 07:57:29;;;;;;;8.38;4.85;;;;;;;5.31;73.54;101694.81;5029160;28;20029;-61
2022/12/07 07:59:54;;;;;;;11.27;4.93;;;;;;;5.31;73.41;101692.06;5041044;28;20366;-60
2022/12/07 08:02:20;;;;;;;15.32;5.18;;;;;;;5.32;73.28;101691.00;5031555;28;20028;-61
2022/12/07 08:04:46;;;;;;;14.80;5.57;;;;;;;5.30;73.70;101699.44;5022036;28;20045;-60
2022/12/07 08:07:13;;;;;;;14.18;5.55;;;;;;;5.31;73.29;101692.06;5029093;28;20076;-61
2022/12/07 08:09:38;;;;;;;11.80;5.43;;;;;;;5.29;73.63;101695.00;5029924;28;20131;-61
2022/12/07 08:12:04;;;;;;;9.90;5.10;;;;;;;5.28;72.94;101698.81;5025527;28;20148;-61
2022/12/07 08:14:30;;;;;;;11.00;5.47;;;;;;;5.29;73.17;101702.41;5020067;28;20393;-62
2022/12/07 08:16:58;;;;;;;8.95;5.18;;;;;;;5.30;72.94;101698.59;5022035;28;20108;-62
2022/12/07 08:19:23;;;;;;;8.02;5.50;;;;;;;5.28;72.60;101701.56;5025926;28;20062;-61
2022/12/07 08:21:49;;;;;;;12.82;6.18;;;;;;;5.26;72.86;101709.13;5021036;28;20025;-62
2022/12/07 08:24:14;;;;;;;11.05;5.53;;;;;;;5.26;73.33;101708.28;5015901;28;20055;-61
2022/12/07 08:26:40;;;;;;;10.27;5.18;;;;;;;5.27;73.54;101712.78;5010658;28;20560;-61
2022/12/07 08:29:05;;;;;;;12.18;5.35;;;;;;;5.26;73.04;101711.88;5020082;28;20022;-60
2022/12/07 08:31:31;;;;;;;9.57;5.32;;;;;;;5.26;72.87;101722.06;5021843;28;20325;-61
2022/12/07 08:34:02;;;;;;;13.05;5.55;;;;;;;5.27;73.05;101716.38;5026182;28;20037;-61
2022/12/07 08:36:27;;;;;;;11.57;4.50;;;;;;;5.29;73.46;101713.41;5026353;28;20049;-62
2022/12/07 08:38:53;;;;;;;10.77;5.03;;;;;;;5.30;73.61;101715.94;5026522;28;20495;-61
2022/12/07 08:41:18;;;;;;;12.50;4.70;;;;;;;5.32;73.15;101718.53;5025504;28;20025;-61
2022/12/07 08:43:44;;;;;;;8.93;5.45;;;;;;;5.31;73.33;101728.69;5012180;28;20068;-60
2022/12/07 08:46:22;;;;;;;9.60;5.03;;;;;;;5.36;73.30;101730.84;5012651;28;20080;-60
2022/12/07 08:48:55;;;;;;;8.80;5.30;;;;;;;5.38;73.85;101728.72;5012914;28;20145;-61
2022/12/07 08:51:21;;;;;;;;;;;;;;;5.57;73.83;101725.31;5029330;28;20112;-60
2022/12/07 08:53:47;;;;;;;9.30;5.88;;;;;;;5.95;76.48;101718.66;5026300;28;20003;-60
2022/12/07 08:56:13;;;;;;;10.07;5.10;;;;;;;6.07;72.94;101717.88;5021547;28;20116;-61
2022/12/07 08:58:39;;;;;;;12.40;5.30;;;;;;;6.01;72.67;101717.81;5026572;28;20061;-61
2022/12/07 09:01:05;;;;;;;14.70;4.32;;;;;;;6.37;79.77;101707.47;5025860;28;20033;-62
2022/12/07 09:03:31;;;;;;;9.75;4.90;;;;;;;6.31;73.65;101710.16;5021143;28;20462;-61
2022/12/07 09:05:57;;;;;;;8.15;4.47;;;;;;;6.22;72.65;101709.50;5030327;28;20036;-61
2022/12/07 09:08:31;;;;;;;9.40;4.57;;;;;;;6.07;72.78;101712.38;5033192;28;20033;-62
2022/12/07 09:11:16;;;;;;;7.60;4.75;;;;;;;6.04;73.26;101707.25;5031150;28;20033;-61
2022/12/07 09:13:42;;;;;;;6.13;4.30;;;;;;;5.88;73.35;101702.03;5032537;28;20045;-62
2022/12/07 09:16:07;;;;;;;8.68;4.63;;;;;;;5.86;73.65;101695.88;5033703;28;20852;-61
2022/12/07 09:18:32;;;;;;;6.18;4.43;;;;;;;5.85;73.72;101705.19;5032265;28;20571;-62
2022/12/07 09:20:58;;;;;;;9.68;4.80;;;;;;;5.81;73.65;101696.47;5028075;28;20400;-60
2022/12/07 09:23:23;;;;;;;10.23;4.97;;;;;;;5.81;73.87;101706.63;5025566;28;20524;-61
2022/12/07 09:25:49;;;;;;;9.30;4.93;;;;;;;5.80;74.04;101700.28;5030018;28;20040;-61
2022/12/07 09:28:14;;;;;;;8.07;4.47;;;;;;;5.82;73.76;101709.22;5031828;28;20044;-61
2022/12/07 09:30:45;;;;;;;9.57;5.15;;;;;;;6.00;74.69;101700.44;5031515;28;20584;-61
2022/12/07 09:33:11;;;;;;;7.90;5.10;;;;;;;6.08;73.89;101702.19;5030805;28;20622;-61
2022/12/07 09:35:36;;;;;;;9.88;5.20;;;;;;;6.04;73.18;101700.88;5032428;28;20136;-61
2022/12/07 09:38:01;;;;;;;12.73;5.57;;;;;;;5.97;73.07;101703.59;5031212;28;20059;-61
2022/12/07 09:40:30;;;;;;;13.75;6.45;;;;;;;5.93;73.58;101699.53;5028951;28;20029;-61
2022/12/07 09:42:55;;;;;;;15.02;6.07;;;;;;;5.91;73.74;101708.00;5032685;28;20026;-61
2022/12/07 09:45:33;;;;;;;12.43;6.00;;;;;;;5.97;74.46;101706.34;5031706;28;20076;-61
2022/12/07 09:47:59;;;;;;;12.63;5.68;;;;;;;6.04;74.04;101704.50;5032974;28;20088;-61
2022/12/07 09:50:26;;;;;;;12.75;5.88;;;;;;;6.18;74.94;101701.84;5031954;28;20037;-61
2022/12/07 09:52:55;;;;;;;11.20;6.40;;;;;;;6.31;73.87;101701.91;5031121;28;20125;-61
2022/12/07 09:55:25;;;;;;;11.77;5.65;;;;;;;6.51;74.06;101707.50;5023060;28;20052;-61
2022/12/07 09:57:52;;;;;;;8.15;5.07;;;;;;;6.66;73.75;101708.22;5029400;28;20203;-61
2022/12/07 10:00:21;;;;;;;11.43;5.10;;;;;;;6.85;74.02;101709.34;5031827;28;20049;-61
2022/12/07 10:02:53;;;;;;;9.13;5.18;;;;;;;6.97;72.71;101701.31;5028789;28;20033;-61
2022/12/07 10:05:24;;;;;;;11.50;4.83;;;;;;;6.98;71.82;101706.59;5019713;28;20538;-60
2022/12/07 10:07:49;;;;;;;9.40;4.78;;;;;;;6.98;72.28;101701.09;5029439;28;20021;-62
2022/12/07 10:10:38;;;;;;;6.78;4.05;;;;;;;7.00;71.87;101696.22;5030275;28;20025;-60
2022/12/07 10:13:05;;;;;;;10.45;4.63;;;;;;;6.94;71.96;101683.25;5037866;28;20029;-62
2022/12/07 10:15:52;;;;;;;9.75;4.38;;;;;;;6.95;72.68;101693.22;5028865;28;20582;-61
2022/12/07 10:18:35;;;;;;;8.45;4.68;;;;;;;7.01;73.54;101684.13;5031312;28;20345;-61
2022/12/07 10:21:17;;;;;;;8.18;4.53;;;;;;;7.14;73.28;101681.38;5031254;28;20535;-61
2022/12/07 10:24:00;;;;;;;6.75;3.95;;;;;;;7.25;73.15;101679.91;5032038;28;20025;-61
2022/12/07 10:26:29;;;;;;;6.97;3.75;;;;;;;7.25;72.32;101676.28;5032260;28;20451;-61
2022/12/07 10:28:58;;;;;;;6.38;3.53;;;;;;;7.31;72.76;101684.59;5029289;28;20106;-61
2022/12/07 10:31:24;;;;;;;9.50;4.00;;;;;;;7.30;71.81;101669.06;5017002;28;20050;-61
2022/12/07 10:33:52;;;;;;;9.27;4.22;;;;;;;7.32;71.55;101666.09;5011754;28;20030;-61
2022/12/07 10:36:35;;;;;;;8.27;4.00;;;;;;;7.34;72.53;101667.56;5011049;28;20125;-61
2022/12/07 10:39:10;;;;;;;6.22;3.70;;;;;;;7.35;71.77;101662.94;5014513;28;20038;-61
2022/12/07 10:41:37;;;;;;;7.80;3.95;;;;;;;7.40;71.81;101657.59;5025612;28;20069;-61
2022/12/07 10:44:05;;;;;;;10.07;3.65;;;;;;;7.46;72.38;101662.25;5030097;28;20132;-61
2022/12/07 10:46:54;;;;;;;11.43;4.18;;;;;;;7.54;71.82;101662.03;5031156;28;20030;-61
2022/12/07 10:49:47;;;;;;;7.72;4.57;;;;;;;7.60;71.33;101663.13;5023798;28;20393;-62
2022/12/07 10:52:28;;;;;;;10.68;4.60;;;;;;;7.71;70.99;101656.09;5026505;28;20295;-59
2022/12/07 10:55:12;;;;;;;6.80;4.18;;;;;;;7.75;71.06;101654.59;5035820;28;20047;-61
2022/12/07 10:58:07;;;;;;;7.72;3.75;;;;;;;7.71;70.55;101645.06;5033978;28;20487;-61
2022/12/07 11:00:43;;;;;;;9.40;4.25;;;;;;;7.67;70.85;101646.53;5049625;28;20041;-60
2022/12/07 11:03:23;;;;;;;6.93;4.32;;;;;;;7.62;70.08;101639.75;5044565;28;20115;-61
2022/12/07 11:06:04;;;;;;;13.23;4.25;;;;;;;7.59;71.08;101637.41;5010961;28;20041;-60
2022/12/07 11:08:32;;;;;;;11.50;4.45;;;;;;;7.60;70.50;101635.50;5012648;28;20414;-60
2022/12/07 11:11:33;;;;;;;12.85;3.72;;;;;;;7.55;71.17;101627.00;5021016;28;20077;-61
2022/12/07 11:14:23;;;;;;;10.98;3.90;;;;;;;7.55;71.12;101635.28;5044238;28;20459;-61
2022/12/07 11:16:57;;;;;;;12.38;3.30;;;;;;;7.49;71.22;101625.09;5024233;28;20480;-61
2022/12/07 11:19:51;;;;;;;9.55;3.58;;;;;;;7.49;70.71;101619.56;5035912;28;20573;-61
2022/12/07 11:22:23;;;;;;;7.38;3.50;;;;;;;7.40;71.52;101620.84;5013291;28;20096;-61
2022/12/07 11:25:19;;;;;;;9.73;3.53;;;;;;;7.42;72.03;101616.78;5026660;28;20053;-61
2022/12/07 11:28:03;;;;;;;5.63;3.50;;;;;;;7.39;71.80;101622.78;5019948;28;20550;-60
2022/12/07 11:30:48;;;;;;;8.68;3.40;;;;;;;7.42;71.78;101615.94;5024324;28;20713;-61
2022/12/07 11:33:13;;;;;;;10.75;3.72;;;;;;;7.37;71.66;101616.59;5028281;28;20420;-62
2022/12/07 11:35:56;;;;;;;8.40;3.58;;;;;;;7.40;72.22;101609.81;5028298;28;20038;-61
2022/12/07 11:38:35;;;;;;;7.95;3.50;;;;;;;7.40;71.74;101613.41;5016287;28;20032;-62
2022/12/07 11:41:14;;;;;;;7.15;3.40;;;;;;;7.40;71.61;101609.81;5026829;28;20069;-61
2022/12/07 11:44:23;;;;;;;7.90;3.70;;;;;;;7.44;72.21;101611.06;5029465;28;20026;-61
2022/12/07 11:46:53;;;;;;;9.63;4.38;;;;;;;7.41;72.23;101611.50;5010633;28;20049;-62